Time;durP1;ratioP1;P1;durP2;ratioP2;P2;SDS_P1;SDS_P2;PMS_P1;PMS_P2;Temp;Humidity;BMP_temperature;BMP_pressure;BME280_temperature;BME280_humidity;BME280_pressure;Samples;Min_cycle;Max_cycle;Signal;HPM_P1;HPM_P2
2023/03/17 00:01:09;;;;;;;2.55;1.60;;;;;;;5.18;84.42;100417.06;5118220;29;20106;-72
2023/03/17 00:03:41;;;;;;;3.05;1.50;;;;;;;5.13;84.43;100409.38;5115065;29;20159;-72
2023/03/17 00:06:26;;;;;;;1.85;1.33;;;;;;;5.14;83.49;100408.47;5117068;28;20042;-72
2023/03/17 00:08:57;;;;;;;3.45;1.45;;;;;;;5.22;84.94;100410.94;5117504;28;20433;-72
2023/03/17 00:11:27;;;;;;;2.28;1.30;;;;;;;5.08;85.91;100418.06;5116532;28;20050;-72
2023/03/17 00:13:57;;;;;;;3.30;1.70;;;;;;;5.00;86.06;100423.38;5121492;28;20071;-73
2023/03/17 00:16:31;;;;;;;2.85;1.35;;;;;;;5.00;85.66;100417.34;5118498;28;20035;-72
2023/03/17 00:19:02;;;;;;;2.13;1.30;;;;;;;5.01;86.47;100413.88;5116295;28;20455;-72
2023/03/17 00:21:34;;;;;;;3.20;1.38;;;;;;;4.95;87.46;100408.81;5124880;28;20201;-72
2023/03/17 00:24:05;;;;;;;5.45;1.40;;;;;;;4.90;86.28;100406.28;5127022;28;20042;-72
2023/03/17 00:26:35;;;;;;;4.53;1.55;;;;;;;4.87;86.29;100400.31;5117789;28;20058;-72
2023/03/17 00:29:07;;;;;;;4.28;1.40;;;;;;;4.88;87.33;100413.25;5115306;28;20035;-71
2023/03/17 00:31:38;;;;;;;3.67;2.00;;;;;;;4.85;87.46;100404.66;5120418;28;20051;-72
2023/03/17 00:34:12;;;;;;;4.10;1.80;;;;;;;4.83;87.62;100404.66;5116876;29;20471;-72
2023/03/17 00:36:46;;;;;;;3.22;1.52;;;;;;;4.85;88.71;100400.34;5116365;28;20090;-72
2023/03/17 00:39:17;;;;;;;3.90;1.58;;;;;;;4.77;88.77;100398.75;5115972;28;20405;-72
2023/03/17 00:41:48;;;;;;;2.78;1.45;;;;;;;4.73;88.49;100397.94;5116335;29;20081;-70
2023/03/17 00:44:19;;;;;;;2.97;1.60;;;;;;;4.74;87.43;100397.06;5123002;28;20038;-70
2023/03/17 00:46:49;;;;;;;6.53;1.52;;;;;;;4.79;87.61;100389.22;5116733;28;20440;-71
2023/03/17 00:49:22;;;;;;;4.28;1.60;;;;;;;4.71;88.41;100389.34;5115723;28;20035;-72
2023/03/17 00:51:53;;;;;;;2.35;1.10;;;;;;;4.73;87.28;100385.00;5117037;28;20429;-72
2023/03/17 00:54:23;;;;;;;3.75;1.83;;;;;;;4.71;87.46;100386.75;5133152;28;20326;-72
2023/03/17 00:56:53;;;;;;;6.18;1.75;;;;;;;4.59;88.21;100380.88;5114981;28;20031;-72
2023/03/17 00:59:27;;;;;;;4.05;1.48;;;;;;;4.63;88.26;100375.66;5124037;28;20107;-72
2023/03/17 01:01:58;;;;;;;3.38;1.60;;;;;;;4.51;89.07;100372.38;5116816;29;20042;-71
2023/03/17 01:04:28;;;;;;;5.55;2.03;;;;;;;4.52;89.42;100372.38;5114295;29;20031;-72
2023/03/17 01:06:59;;;;;;;3.10;1.77;;;;;;;4.47;90.56;100376.75;5115794;28;20123;-72
2023/03/17 01:09:29;;;;;;;2.95;1.50;;;;;;;4.36;91.14;100370.00;5116245;28;20061;-73
2023/03/17 01:12:00;;;;;;;2.70;1.55;;;;;;;4.28;91.24;100367.53;5122287;28;20042;-72
2023/03/17 01:14:30;;;;;;;4.00;1.98;;;;;;;4.22;91.46;100370.22;5122457;28;20042;-72
2023/03/17 01:17:01;;;;;;;3.35;1.70;;;;;;;4.19;91.82;100365.09;5114284;28;20649;-73
2023/03/17 01:19:31;;;;;;;3.15;1.85;;;;;;;4.20;92.25;100364.22;5115551;28;20035;-72
2023/03/17 01:22:02;;;;;;;3.20;1.63;;;;;;;4.13;92.05;100356.56;5115529;28;20397;-72
2023/03/17 01:24:33;;;;;;;3.95;1.75;;;;;;;4.19;92.46;100357.34;5113828;28;20083;-72
2023/03/17 01:27:03;;;;;;;4.82;1.80;;;;;;;4.17;93.14;100355.63;5116559;28;20437;-72
2023/03/17 01:29:34;;;;;;;3.72;1.75;;;;;;;4.07;94.06;100351.44;5126953;28;20027;-72
2023/03/17 01:32:05;;;;;;;5.05;2.10;;;;;;;4.07;95.15;100347.13;5131357;28;20031;-71
2023/03/17 01:34:35;;;;;;;2.92;1.75;;;;;;;3.97;95.87;100353.28;5129356;28;20039;-72
2023/03/17 01:37:07;;;;;;;7.85;2.25;;;;;;;3.92;96.50;100347.34;5123784;28;20734;-72
2023/03/17 01:39:37;;;;;;;5.68;1.90;;;;;;;3.87;97.11;100338.78;5127860;28;20689;-73
2023/03/17 01:42:07;;;;;;;5.43;2.55;;;;;;;3.88;97.34;100343.09;5126442;28;20038;-71
2023/03/17 01:45:04;;;;;;;4.13;1.90;;;;;;;3.83;96.72;100337.13;5123053;28;20474;-72
2023/03/17 01:47:35;;;;;;;4.43;1.80;;;;;;;3.90;96.69;100335.28;5125659;28;20031;-72
2023/03/17 01:50:08;;;;;;;2.72;1.65;;;;;;;3.88;96.32;100332.75;5127569;28;20032;-72
2023/03/17 01:52:39;;;;;;;5.45;2.13;;;;;;;3.91;95.48;100344.75;5105079;28;20118;-72
2023/03/17 01:55:14;;;;;;;3.85;1.88;;;;;;;3.93;95.14;100337.88;5123683;28;20038;-72
2023/03/17 01:57:45;;;;;;;5.97;2.20;;;;;;;3.97;95.89;100335.19;5119438;28;20035;-72
2023/03/17 02:00:22;;;;;;;4.50;2.03;;;;;;;3.84;95.54;100332.78;5126551;28;20035;-72
2023/03/17 02:02:55;;;;;;;4.57;1.92;;;;;;;3.91;94.99;100335.28;5129309;28;20027;-72
2023/03/17 02:05:28;;;;;;;4.40;1.77;;;;;;;4.06;94.23;100345.44;5132681;28;20408;-72
2023/03/17 02:07:59;;;;;;;3.17;1.83;;;;;;;4.12;92.55;100347.94;5119290;28;20035;-72
2023/03/17 02:10:29;;;;;;;4.63;2.00;;;;;;;4.18;92.85;100349.59;5127708;28;20041;-72
2023/03/17 02:13:04;;;;;;;5.35;2.22;;;;;;;4.18;92.46;100349.59;5122968;28;20035;-72
2023/03/17 02:15:40;;;;;;;3.08;1.75;;;;;;;4.22;92.39;100343.47;5114117;28;20042;-72
2023/03/17 02:18:11;;;;;;;5.25;2.13;;;;;;;4.24;92.87;100342.59;5122253;28;20126;-72
2023/03/17 02:20:47;;;;;;;3.38;2.05;;;;;;;4.27;93.08;100331.38;5119369;28;20042;-71
2023/03/17 02:23:24;;;;;;;4.97;2.13;;;;;;;4.31;93.19;100333.03;5121443;28;20035;-72
2023/03/17 02:25:54;;;;;;;4.55;2.35;;;;;;;4.17;93.89;100327.19;5127007;28;20335;-71
2023/03/17 02:28:29;;;;;;;4.45;2.10;;;;;;;4.18;93.79;100313.38;5123976;28;20877;-72
2023/03/17 02:31:00;;;;;;;4.60;1.95;;;;;;;4.12;94.94;100308.31;5109440;28;20033;-73
2023/03/17 02:33:30;;;;;;;5.30;2.35;;;;;;;4.17;95.10;100317.72;5129999;28;20681;-72
2023/03/17 02:36:01;;;;;;;5.60;2.38;;;;;;;4.20;95.80;100311.63;5131987;28;20034;-72
2023/03/17 02:38:31;;;;;;;5.43;2.30;;;;;;;4.18;95.83;100319.41;5135134;28;20054;-72
2023/03/17 02:41:01;;;;;;;4.90;2.40;;;;;;;4.14;96.00;100325.47;5135170;28;20030;-73
2023/03/17 02:43:32;;;;;;;4.70;2.15;;;;;;;4.12;96.08;100327.25;5130625;28;20542;-72
2023/03/17 02:46:04;;;;;;;13.05;2.40;;;;;;;4.06;96.11;100324.75;5134600;28;20175;-72
2023/03/17 02:48:36;;;;;;;6.13;2.50;;;;;;;4.02;96.14;100330.84;5131398;28;20084;-72
2023/03/17 02:51:06;;;;;;;4.00;2.20;;;;;;;4.00;97.04;100327.44;5134673;28;20038;-71
2023/03/17 02:53:37;;;;;;;4.57;2.35;;;;;;;3.93;97.30;100328.38;5129597;28;20286;-71
2023/03/17 02:56:08;;;;;;;4.85;2.08;;;;;;;3.87;97.64;100323.28;5127998;28;20046;-72
2023/03/17 02:58:38;;;;;;;5.05;2.25;;;;;;;3.81;98.09;100307.00;5129672;28;20875;-72
2023/03/17 03:01:09;;;;;;;5.47;2.28;;;;;;;3.77;98.13;100308.75;5123707;28;20039;-72
2023/03/17 03:03:40;;;;;;;4.88;2.50;;;;;;;3.69;98.17;100292.50;5125680;28;20496;-72
2023/03/17 03:06:10;;;;;;;6.07;2.53;;;;;;;3.71;98.67;100295.06;5109834;28;20039;-72
2023/03/17 03:08:40;;;;;;;5.78;2.17;;;;;;;3.62;99.57;100298.59;5128528;28;20074;-72
2023/03/17 03:11:11;;;;;;;5.07;2.40;;;;;;;3.58;99.54;100303.84;5129972;28;20488;-72
2023/03/17 03:13:41;;;;;;;4.07;2.05;;;;;;;3.54;99.77;100311.66;5130097;28;20090;-70
2023/03/17 03:16:11;;;;;;;5.38;2.08;;;;;;;3.59;99.40;100321.91;5131610;28;20095;-72
2023/03/17 03:18:42;;;;;;;14.38;2.75;;;;;;;3.65;99.38;100321.81;5122544;28;20028;-70
2023/03/17 03:21:12;;;;;;;4.97;2.45;;;;;;;3.64;98.91;100325.28;5128943;28;20468;-72
2023/03/17 03:23:42;;;;;;;5.57;2.40;;;;;;;3.65;98.47;100326.16;5127199;28;20043;-71
2023/03/17 03:26:13;;;;;;;4.35;2.30;;;;;;;3.71;98.12;100328.66;5129075;28;20031;-70
2023/03/17 03:28:43;;;;;;;5.75;2.40;;;;;;;3.66;98.59;100336.47;5128158;28;20058;-71
2023/03/17 03:31:14;;;;;;;5.90;2.60;;;;;;;3.68;98.28;100339.91;5127832;28;20113;-71
2023/03/17 03:33:44;;;;;;;5.60;2.50;;;;;;;3.75;97.86;100328.59;5127195;28;20042;-71
2023/03/17 03:36:14;;;;;;;5.38;2.47;;;;;;;3.77;98.15;100329.44;5128168;28;20035;-71
2023/03/17 03:38:45;;;;;;;4.38;2.40;;;;;;;3.76;98.68;100319.97;5127539;28;20404;-71
2023/03/17 03:41:16;;;;;;;5.07;2.30;;;;;;;3.76;98.34;100335.47;5129920;28;20065;-72
2023/03/17 03:43:46;;;;;;;4.70;2.50;;;;;;;3.78;98.64;100336.31;5131409;28;20070;-71
2023/03/17 03:46:17;;;;;;;6.53;2.00;;;;;;;3.80;98.34;100331.97;5126109;28;20038;-71
2023/03/17 03:48:47;;;;;;;5.88;2.65;;;;;;;3.65;98.23;100334.75;5133292;28;20066;-71
2023/03/17 03:51:17;;;;;;;3.88;1.88;;;;;;;3.64;98.64;100334.78;5122115;28;20043;-71
2023/03/17 03:53:48;;;;;;;4.88;2.45;;;;;;;3.52;99.74;100339.22;5125093;28;20053;-72
2023/03/17 03:56:18;;;;;;;4.18;2.35;;;;;;;3.48;100.00;100333.25;5127647;28;20497;-72
2023/03/17 03:58:50;;;;;;;5.05;2.47;;;;;;;3.78;99.03;100331.13;5128370;28;20047;-71
2023/03/17 04:01:20;;;;;;;4.40;2.40;;;;;;;3.62;97.90;100321.84;5127893;28;20510;-69
2023/03/17 04:03:50;;;;;;;4.50;2.65;;;;;;;3.54;99.56;100321.97;5126866;28;20026;-69
2023/03/17 04:06:21;;;;;;;5.30;2.38;;;;;;;3.54;99.42;100328.00;5125150;28;20681;-71
2023/03/17 04:08:51;;;;;;;6.63;2.30;;;;;;;3.85;96.92;100325.03;5132454;28;20027;-70
2023/03/17 04:11:21;;;;;;;3.67;2.15;;;;;;;3.82;95.93;100329.38;5129572;28;20467;-71
2023/03/17 04:13:52;;;;;;;6.53;2.30;;;;;;;3.62;96.36;100328.78;5121315;28;20038;-73
2023/03/17 04:16:22;;;;;;;4.50;2.47;;;;;;;3.58;97.79;100326.25;5123272;28;20034;-73
2023/03/17 04:18:52;;;;;;;3.97;2.33;;;;;;;3.58;96.06;100323.66;5125121;28;20142;-72
2023/03/17 04:21:23;;;;;;;3.95;2.10;;;;;;;3.73;96.67;100320.00;5123490;28;20045;-72
2023/03/17 04:23:53;;;;;;;4.70;2.15;;;;;;;3.48;97.75;100314.28;5125696;28;20053;-72
2023/03/17 04:26:23;;;;;;;6.05;2.55;;;;;;;3.63;97.06;100312.41;5126915;28;20114;-72
2023/03/17 04:28:54;;;;;;;3.75;1.90;;;;;;;3.73;96.17;100319.16;5128822;28;20023;-71
2023/03/17 04:31:25;;;;;;;4.70;2.35;;;;;;;3.66;95.53;100310.66;5122587;28;20035;-72
2023/03/17 04:33:55;;;;;;;5.07;2.50;;;;;;;3.65;96.86;100311.47;5117783;29;20031;-72
2023/03/17 04:36:25;;;;;;;7.60;2.80;;;;;;;3.52;97.34;100316.00;5117565;29;20477;-72
2023/03/17 04:38:56;;;;;;;5.68;2.67;;;;;;;3.45;97.35;100311.75;5116253;29;20560;-71
2023/03/17 04:41:26;;;;;;;4.97;2.50;;;;;;;3.38;98.58;100317.88;5124193;28;20047;-69
2023/03/17 04:43:56;;;;;;;4.82;2.47;;;;;;;3.34;97.57;100305.88;5124903;28;20035;-72
2023/03/17 04:46:27;;;;;;;5.30;2.45;;;;;;;3.54;97.08;100309.06;5120805;28;20047;-71
2023/03/17 04:48:57;;;;;;;5.18;2.22;;;;;;;3.58;96.22;100289.19;5123294;28;20086;-71
2023/03/17 04:51:28;;;;;;;6.18;2.60;;;;;;;3.62;95.55;100270.19;5117556;28;20054;-72
2023/03/17 04:53:59;;;;;;;4.93;2.55;;;;;;;3.61;95.96;100273.66;5117117;29;20063;-72
2023/03/17 04:56:30;;;;;;;5.68;2.35;;;;;;;3.43;95.78;100267.88;5117762;29;20381;-71
2023/03/17 04:59:00;;;;;;;4.80;2.35;;;;;;;3.43;96.15;100272.16;5114443;28;20031;-72
2023/03/17 05:01:31;;;;;;;6.00;2.25;;;;;;;3.19;97.25;100256.97;5131215;28;20038;-73
2023/03/17 05:04:01;;;;;;;4.70;2.53;;;;;;;3.03;97.06;100260.59;5118139;29;20035;-72
2023/03/17 05:06:31;;;;;;;5.22;2.67;;;;;;;3.06;97.41;100260.56;5104837;29;20035;-72
2023/03/17 05:09:02;;;;;;;6.40;2.53;;;;;;;3.17;97.26;100269.03;5110501;28;20445;-73
2023/03/17 05:11:33;;;;;;;6.18;2.05;;;;;;;3.22;98.37;100265.50;5101709;28;20126;-71
2023/03/17 05:14:03;;;;;;;7.38;2.80;;;;;;;3.18;98.62;100266.44;5120478;28;20031;-70
2023/03/17 05:16:33;;;;;;;6.32;2.70;;;;;;;3.17;98.76;100263.88;5115870;28;20035;-72
2023/03/17 05:19:04;;;;;;;6.10;2.55;;;;;;;3.13;99.19;100269.94;5115890;28;20122;-71
2023/03/17 05:21:34;;;;;;;5.65;2.72;;;;;;;3.08;99.22;100263.97;5115598;28;20039;-72
2023/03/17 05:24:05;;;;;;;5.82;2.35;;;;;;;3.03;99.67;100263.16;5115634;28;20038;-71
2023/03/17 05:26:35;;;;;;;5.60;2.40;;;;;;;2.97;100.00;100266.66;5115235;28;20031;-71
2023/03/17 05:29:06;;;;;;;7.50;2.70;;;;;;;2.91;100.00;100258.13;5122204;28;20166;-71
2023/03/17 05:31:36;;;;;;;6.78;2.83;;;;;;;2.91;100.00;100245.22;5114178;28;20035;-72
2023/03/17 05:34:06;;;;;;;5.35;2.40;;;;;;;2.95;100.00;100249.47;5106726;29;20095;-71
2023/03/17 05:36:37;;;;;;;5.30;2.45;;;;;;;2.97;100.00;100252.88;5116541;29;20054;-72
2023/03/17 05:39:07;;;;;;;5.90;2.45;;;;;;;3.07;99.79;100257.97;5117867;28;20030;-71
2023/03/17 05:41:38;;;;;;;7.43;2.70;;;;;;;3.14;99.42;100248.41;5115304;28;20440;-71
2023/03/17 05:44:09;;;;;;;5.85;2.70;;;;;;;3.14;99.09;100254.44;5121341;28;20030;-71
2023/03/17 05:46:39;;;;;;;7.10;2.60;;;;;;;3.22;98.79;100250.03;5121464;28;20042;-71
2023/03/17 05:49:10;;;;;;;8.15;2.65;;;;;;;3.27;97.59;100249.97;5115798;28;20027;-73
2023/03/17 05:51:40;;;;;;;5.78;2.72;;;;;;;3.28;96.82;100246.53;5116229;28;20475;-71
2023/03/17 05:54:11;;;;;;;6.93;2.45;;;;;;;3.37;96.59;100236.09;5116722;28;20423;-71
2023/03/17 05:56:41;;;;;;;5.80;2.53;;;;;;;3.43;96.25;100228.28;5115963;29;20446;-69
2023/03/17 05:59:14;;;;;;;5.10;2.40;;;;;;;3.50;95.79;100242.84;5118641;28;20407;-71
2023/03/17 06:01:44;;;;;;;5.43;2.55;;;;;;;3.54;96.31;100250.50;5122630;28;20104;-71
2023/03/17 06:04:15;;;;;;;6.93;2.80;;;;;;;3.65;96.45;100254.66;5127474;28;20039;-70
2023/03/17 06:06:45;;;;;;;6.90;2.67;;;;;;;3.65;95.18;100253.81;5116322;28;20456;-71
2023/03/17 06:09:16;;;;;;;9.30;2.67;;;;;;;3.58;95.44;100258.19;5116095;28;20409;-70
2023/03/17 06:11:48;;;;;;;6.47;2.60;;;;;;;3.74;94.81;100259.72;5117322;29;20039;-71
2023/03/17 06:14:18;;;;;;;5.75;2.60;;;;;;;3.86;93.82;100254.38;5123185;28;20039;-71
2023/03/17 06:16:48;;;;;;;6.25;2.45;;;;;;;3.93;93.73;100248.25;5118007;28;20223;-71
2023/03/17 06:19:19;;;;;;;5.93;2.63;;;;;;;3.92;94.09;100254.28;5117082;28;20039;-71
2023/03/17 06:21:49;;;;;;;5.63;2.60;;;;;;;3.98;92.65;100236.09;5117156;29;20035;-73
2023/03/17 06:24:19;;;;;;;4.50;2.30;;;;;;;4.17;93.19;100234.97;5117232;28;20404;-72
2023/03/17 06:26:51;;;;;;;5.75;2.40;;;;;;;4.25;93.56;100238.28;5116837;28;20027;-70
2023/03/17 06:29:21;;;;;;;7.80;3.28;;;;;;;4.27;93.56;100231.34;5116088;28;20440;-72
2023/03/17 06:31:52;;;;;;;4.25;2.40;;;;;;;4.34;94.35;100227.78;5121669;28;20078;-69
2023/03/17 06:34:23;;;;;;;6.80;2.78;;;;;;;4.49;94.33;100230.09;5122078;28;20516;-71
2023/03/17 06:36:53;;;;;;;7.78;2.80;;;;;;;4.47;94.44;100224.09;5114638;28;20090;-71
2023/03/17 06:39:23;;;;;;;4.82;2.40;;;;;;;4.55;95.66;100235.19;5126406;28;20512;-71
2023/03/17 06:41:54;;;;;;;6.78;2.38;;;;;;;4.69;95.84;100233.22;5117590;29;20031;-71
2023/03/17 06:44:24;;;;;;;3.85;2.30;;;;;;;4.81;96.22;100243.34;5125482;28;20031;-72
2023/03/17 06:46:55;;;;;;;4.25;2.17;;;;;;;4.86;95.08;100240.69;5123573;28;20030;-72
2023/03/17 06:49:26;;;;;;;6.50;2.60;;;;;;;4.98;94.94;100246.47;5123125;28;20110;-72
2023/03/17 06:51:57;;;;;;;5.93;2.17;;;;;;;5.07;94.20;100248.91;5116851;29;20129;-72
2023/03/17 06:54:27;;;;;;;4.65;2.47;;;;;;;5.31;92.04;100238.06;5117131;29;20533;-72
2023/03/17 06:56:58;;;;;;;5.68;2.50;;;;;;;5.51;90.95;100235.94;5116522;29;20189;-72
2023/03/17 06:59:29;;;;;;;5.45;2.50;;;;;;;5.43;90.34;100232.66;5120280;28;20039;-73
2023/03/17 07:01:59;;;;;;;4.55;2.30;;;;;;;5.81;88.73;100225.81;5116196;28;20062;-71
2023/03/17 07:04:30;;;;;;;6.07;2.70;;;;;;;5.91;88.38;100231.66;5115744;28;20070;-72
2023/03/17 07:07:02;;;;;;;6.63;2.60;;;;;;;6.06;87.74;100226.94;5117908;28;20054;-74
2023/03/17 07:09:33;;;;;;;7.95;2.80;;;;;;;6.16;87.54;100240.56;5131600;28;20658;-73
2023/03/17 07:12:03;;;;;;;5.72;2.30;;;;;;;6.33;87.14;100244.47;5116322;29;20529;-73
2023/03/17 07:14:35;;;;;;;5.57;2.70;;;;;;;6.38;86.83;100244.34;5122852;28;20031;-72
2023/03/17 07:17:05;;;;;;;5.93;2.63;;;;;;;6.44;85.73;100254.59;5117149;28;20042;-73
2023/03/17 07:19:36;;;;;;;4.45;2.40;;;;;;;6.48;87.13;100240.66;5122779;28;20035;-73
2023/03/17 07:22:08;;;;;;;5.72;2.70;;;;;;;6.67;86.21;100237.56;5121607;28;20395;-73
2023/03/17 07:24:40;;;;;;;5.55;2.55;;;;;;;6.89;86.10;100241.31;5121121;28;20118;-72
2023/03/17 07:27:11;;;;;;;5.72;2.45;;;;;;;7.10;85.70;100232.94;5121017;23;20070;-73
2023/03/17 07:29:41;;;;;;;4.72;2.20;;;;;;;7.39;84.37;100233.84;5110723;29;20023;-71
2023/03/17 07:32:11;;;;;;;5.63;2.40;;;;;;;9.39;78.82;100222.94;5098295;29;20046;-74
2023/03/17 07:34:42;;;;;;;5.05;2.33;;;;;;;10.97;72.19;100220.06;5098294;29;20106;-71
2023/03/17 07:37:12;;;;;;;3.85;1.83;;;;;;;11.71;67.77;100206.25;5094377;29;20504;-73
2023/03/17 07:39:43;;;;;;;6.28;2.47;;;;;;;12.65;63.87;100198.16;5085077;29;20032;-72
2023/03/17 07:42:16;;;;;;;3.92;2.05;;;;;;;13.54;63.32;100189.13;5086317;29;20034;-75
2023/03/17 07:44:46;;;;;;;4.93;2.28;;;;;;;13.42;61.82;100197.66;5082849;29;20068;-74
2023/03/17 07:47:16;;;;;;;4.80;2.00;;;;;;;12.93;63.43;100199.34;5086449;29;20115;-73
2023/03/17 07:49:47;;;;;;;3.40;2.20;;;;;;;12.58;63.68;100191.53;5086998;29;20028;-73
2023/03/17 07:52:17;;;;;;;5.03;2.35;;;;;;;13.37;62.51;100190.00;5082577;29;20035;-73
2023/03/17 07:54:50;;;;;;;6.03;2.00;;;;;;;13.29;62.77;100196.59;5088392;29;20036;-73
2023/03/17 07:57:20;;;;;;;4.90;2.10;;;;;;;12.30;64.73;100196.41;5085023;29;20028;-74
2023/03/17 07:59:51;;;;;;;4.88;2.10;;;;;;;12.43;64.66;100181.81;5076155;29;20083;-73
2023/03/17 08:02:21;;;;;;;3.50;1.88;;;;;;;12.98;63.81;100183.38;5080299;29;20035;-72
2023/03/17 08:04:52;;;;;;;3.83;1.83;;;;;;;13.19;61.84;100179.63;5087357;29;20126;-73
2023/03/17 08:07:23;;;;;;;3.42;1.77;;;;;;;13.68;61.38;100187.44;5084501;29;20032;-70
2023/03/17 08:09:53;;;;;;;5.13;1.92;;;;;;;13.51;62.34;100184.00;5083452;29;20034;-73
2023/03/17 08:12:24;;;;;;;5.13;1.83;;;;;;;13.19;61.58;100190.13;5083370;29;20759;-73
2023/03/17 08:14:54;;;;;;;3.58;2.13;;;;;;;12.38;63.28;100186.44;5086459;29;20497;-72
2023/03/17 08:17:26;;;;;;;4.97;1.98;;;;;;;12.53;64.50;100183.06;5080358;29;20038;-73
2023/03/17 08:19:57;;;;;;;3.33;2.00;;;;;;;12.60;63.54;100194.91;5082428;29;20043;-72
2023/03/17 08:22:27;;;;;;;2.85;1.80;;;;;;;13.01;63.30;100191.94;5081426;29;20429;-74
2023/03/17 08:24:58;;;;;;;4.13;2.00;;;;;;;13.40;62.27;100187.22;5095935;29;20035;-73
2023/03/17 08:27:28;;;;;;;4.30;1.92;;;;;;;13.85;61.61;100176.88;5085780;29;20430;-74
2023/03/17 08:29:59;;;;;;;4.15;1.92;;;;;;;13.79;62.14;100182.47;5083892;29;20043;-75
2023/03/17 08:32:29;;;;;;;4.05;1.90;;;;;;;13.64;60.97;100177.19;5080568;29;20143;-75
2023/03/17 08:35:00;;;;;;;3.67;2.10;;;;;;;13.71;60.54;100168.88;5086731;29;20131;-73
2023/03/17 08:37:31;;;;;;;4.28;1.85;;;;;;;14.11;61.02;100170.16;5079934;29;20050;-73
2023/03/17 08:40:01;;;;;;;6.45;1.90;;;;;;;14.34;60.12;100164.47;5081369;29;20432;-73
2023/03/17 08:42:31;;;;;;;7.00;1.70;;;;;;;14.33;60.54;100168.88;5081493;29;20046;-74
2023/03/17 08:45:03;;;;;;;4.07;1.75;;;;;;;14.43;60.56;100162.16;5070958;29;20035;-74
2023/03/17 08:47:33;;;;;;;3.45;1.80;;;;;;;14.29;60.12;100174.41;5087168;29;20317;-73
2023/03/17 08:50:09;;;;;;;4.50;2.20;;;;;;;14.06;61.99;100169.56;5080878;29;20124;-73
2023/03/17 08:52:39;;;;;;;4.18;2.00;;;;;;;14.80;61.47;100174.00;5083636;29;20043;-72
2023/03/17 08:55:12;;;;;;;3.10;1.60;;;;;;;14.64;60.79;100170.59;5064903;29;20399;-73
2023/03/17 08:57:43;;;;;;;4.32;1.80;;;;;;;15.90;58.72;100177.63;5087023;29;20055;-73
2023/03/17 09:00:19;;;;;;;3.95;2.10;;;;;;;16.95;57.86;100165.34;5079220;29;20036;-73
2023/03/17 09:02:49;;;;;;;4.20;1.60;;;;;;;17.07;56.78;100159.22;5083342;29;20045;-74
2023/03/17 09:05:19;;;;;;;4.38;1.80;;;;;;;17.38;56.15;100159.69;5086746;29;20039;-73
2023/03/17 09:07:50;;;;;;;3.80;1.90;;;;;;;16.82;55.79;100159.22;5084798;29;20039;-73
2023/03/17 09:10:22;;;;;;;2.75;1.60;;;;;;;15.96;57.36;100166.72;5081047;29;20032;-73
2023/03/17 09:12:53;;;;;;;4.32;1.67;;;;;;;15.99;58.59;100155.09;5083875;29;20027;-75
2023/03/17 09:15:23;;;;;;;2.90;1.67;;;;;;;16.54;57.87;100151.44;5082021;29;20055;-71
2023/03/17 09:17:53;;;;;;;3.60;1.70;;;;;;;16.75;57.67;100147.34;5065710;29;20461;-73
2023/03/17 09:20:24;;;;;;;3.60;1.63;;;;;;;16.94;58.50;100158.38;5079564;29;20497;-72
2023/03/17 09:22:56;;;;;;;8.38;1.80;;;;;;;16.23;60.35;100158.81;5079947;29;20092;-73
2023/03/17 09:25:26;;;;;;;4.13;1.92;;;;;;;15.16;61.61;100170.03;5088409;29;20407;-73
2023/03/17 09:27:57;;;;;;;3.17;1.70;;;;;;;15.06;60.35;100161.84;5084178;29;20036;-74
2023/03/17 09:30:28;;;;;;;5.18;1.70;;;;;;;14.69;62.02;100164.13;5080806;29;20067;-74
2023/03/17 09:32:59;;;;;;;2.78;1.60;;;;;;;14.51;61.70;100169.59;5080354;29;20024;-73
2023/03/17 09:35:30;;;;;;;4.38;1.80;;;;;;;14.34;63.91;100164.47;5088232;29;20039;-73
2023/03/17 09:38:00;;;;;;;4.50;1.65;;;;;;;14.50;63.57;100162.66;5078731;29;20300;-75
2023/03/17 09:40:36;;;;;;;4.95;1.60;;;;;;;14.49;62.53;100166.22;5080791;29;20051;-73
2023/03/17 09:43:15;;;;;;;2.47;1.52;;;;;;;14.56;64.33;100155.25;5080781;29;20435;-70
2023/03/17 09:45:46;;;;;;;3.53;1.70;;;;;;;14.45;64.07;100151.56;5081445;29;20139;-74
2023/03/17 09:48:39;;;;;;;2.55;1.52;;;;;;;14.45;64.92;100146.31;5087464;29;20161;-74
2023/03/17 09:51:13;;;;;;;3.30;1.60;;;;;;;14.67;64.53;100142.34;5080704;29;20451;-73
2023/03/17 09:53:53;;;;;;;5.03;1.80;;;;;;;14.56;63.26;100141.28;5083695;29;20276;-73
2023/03/17 09:56:23;;;;;;;5.18;1.80;;;;;;;14.57;65.76;100135.06;5075981;29;20317;-72
2023/03/17 09:58:58;;;;;;;3.42;1.70;;;;;;;14.64;66.32;100131.13;5085348;29;20344;-72
2023/03/17 10:01:29;;;;;;;3.58;1.70;;;;;;;14.94;66.91;100131.00;5079020;29;20410;-74
2023/03/17 10:04:01;;;;;;;3.22;1.70;;;;;;;14.77;66.15;100126.84;5070152;29;20398;-75
2023/03/17 10:06:38;;;;;;;5.03;1.63;;;;;;;14.58;64.63;100128.88;5087448;29;20036;-75
2023/03/17 10:09:14;;;;;;;3.30;1.77;;;;;;;14.31;64.42;100133.09;5089285;29;20031;-75
2023/03/17 10:11:53;;;;;;;2.95;1.52;;;;;;;14.31;66.92;100135.72;5074948;29;20038;-75
2023/03/17 10:14:40;;;;;;;4.40;1.95;;;;;;;14.42;67.07;100135.97;5077619;29;20739;-74
2023/03/17 10:17:15;;;;;;;3.55;1.77;;;;;;;14.24;65.57;100135.22;5082361;29;20050;-74
2023/03/17 10:20:10;;;;;;;3.10;1.60;;;;;;;14.68;66.92;100130.88;5081949;29;20040;-73
2023/03/17 10:22:47;;;;;;;4.60;2.13;;;;;;;14.62;66.25;100128.59;5079205;29;20032;-75
2023/03/17 10:25:21;;;;;;;3.33;1.83;;;;;;;14.30;66.22;100134.03;5085197;29;20110;-74
2023/03/17 10:28:02;;;;;;;3.30;1.73;;;;;;;14.02;67.90;100131.25;5084442;29;20071;-75
2023/03/17 10:30:34;;;;;;;3.35;1.90;;;;;;;14.38;69.84;100130.03;5077068;29;20062;-75
2023/03/17 10:33:07;;;;;;;4.90;2.20;;;;;;;14.33;67.35;100124.19;5080112;29;20035;-74
2023/03/17 10:35:39;;;;;;;3.45;1.90;;;;;;;14.13;69.76;100131.50;5086568;29;20043;-74
2023/03/17 10:38:17;;;;;;;5.97;2.42;;;;;;;14.61;69.67;100126.88;5073698;29;20046;-74
2023/03/17 10:41:02;;;;;;;3.45;1.63;;;;;;;14.75;68.52;100116.41;5065179;29;20044;-73
2023/03/17 10:43:47;;;;;;;2.75;1.35;;;;;;;14.77;68.51;100111.88;5082717;29;20032;-75
2023/03/17 10:46:25;;;;;;;3.30;1.67;;;;;;;15.19;68.49;100114.56;5085138;29;20028;-74
2023/03/17 10:49:02;;;;;;;7.30;1.90;;;;;;;15.45;69.39;100105.91;5082103;29;20039;-75
2023/03/17 10:51:35;;;;;;;3.53;1.55;;;;;;;15.39;67.48;100111.56;5074829;29;20059;-74
2023/03/17 10:54:10;;;;;;;5.82;1.63;;;;;;;15.40;68.74;100108.81;5084729;29;20709;-74
2023/03/17 10:56:41;;;;;;;4.40;1.70;;;;;;;15.51;71.93;100108.19;5080061;29;20114;-75
2023/03/17 10:59:29;;;;;;;3.33;1.40;;;;;;;15.59;70.83;100103.25;5087049;29;20044;-73
2023/03/17 11:02:04;;;;;;;2.10;1.30;;;;;;;15.65;68.33;100097.59;5080990;29;20036;-75
2023/03/17 11:04:38;;;;;;;2.08;1.40;;;;;;;15.59;69.50;100100.63;5084965;29;20420;-74
2023/03/17 11:07:17;;;;;;;3.55;1.40;;;;;;;15.54;67.57;100094.81;5089061;29;20409;-75
2023/03/17 11:09:51;;;;;;;3.38;1.52;;;;;;;15.44;67.53;100084.00;5094010;29;20043;-74
2023/03/17 11:12:40;;;;;;;4.95;1.52;;;;;;;15.64;69.58;100088.84;5090039;29;20028;-74
2023/03/17 11:15:18;;;;;;;5.28;1.60;;;;;;;15.76;70.49;100085.44;5093165;29;20031;-75
2023/03/17 11:17:56;;;;;;;3.65;1.85;;;;;;;15.80;67.47;100076.38;5069047;29;20083;-75
2023/03/17 11:20:51;;;;;;;3.42;1.42;;;;;;;15.79;66.91;100084.38;5082050;29;20032;-74
2023/03/17 11:23:40;;;;;;;2.42;1.33;;;;;;;15.91;66.55;100087.06;5074541;29;20074;-74
2023/03/17 11:26:30;;;;;;;2.08;1.10;;;;;;;16.15;67.21;100080.19;5076478;29;20035;-75
2023/03/17 11:29:15;;;;;;;4.60;1.30;;;;;;;16.24;65.37;100082.22;5082702;29;20023;-74
2023/03/17 11:31:52;;;;;;;2.80;1.40;;;;;;;16.53;69.51;100077.69;5080739;29;20429;-74
2023/03/17 11:34:30;;;;;;;4.32;1.38;;;;;;;16.63;67.32;100084.88;5090070;29;20028;-76
2023/03/17 11:37:22;;;;;;;2.50;1.17;;;;;;;16.73;67.01;100075.34;5084615;29;20042;-74
2023/03/17 11:40:01;;;;;;;1.92;1.00;;;;;;;16.73;65.38;100077.16;5092885;29;20043;-74
2023/03/17 11:42:59;;;;;;;2.28;1.10;;;;;;;17.04;66.26;100089.00;5068928;29;20035;-75
2023/03/17 11:45:41;;;;;;;2.38;1.25;;;;;;;17.15;64.86;100091.72;5082398;29;20511;-75
2023/03/17 11:48:23;;;;;;;2.28;1.13;;;;;;;16.99;62.21;100085.81;5074200;29;20457;-74
2023/03/17 11:51:05;;;;;;;2.88;1.30;;;;;;;17.04;63.94;100082.84;5088787;29;20118;-75
2023/03/17 11:53:53;;;;;;;2.03;1.42;;;;;;;17.12;64.03;100085.81;5083429;29;20050;-74